sensor_id;sensor_type;location;lat;lon;timestamp;P1;durP1;ratioP1;P2;durP2;ratioP2
53833;SDS011;39735;51.432;5.482;2023-04-12T00:01:33;11.38;;;1.88;;
53833;SDS011;39735;51.432;5.482;2023-04-12T00:03:59;4.13;;;1.88;;
53833;SDS011;39735;51.432;5.482;2023-04-12T00:06:28;9.45;;;1.85;;
53833;SDS011;39735;51.432;5.482;2023-04-12T00:08:57;4.63;;;2.05;;
53833;SDS011;39735;51.432;5.482;2023-04-12T00:11:23;15.95;;;1.75;;
53833;SDS011;39735;51.432;5.482;2023-04-12T00:13:50;4.30;;;1.23;;
53833;SDS011;39735;51.432;5.482;2023-04-12T00:16:15;11.57;;;3.13;;
53833;SDS011;39735;51.432;5.482;2023-04-12T00:18:40;19.40;;;1.38;;
53833;SDS011;39735;51.432;5.482;2023-04-12T00:21:06;5.97;;;1.50;;
53833;SDS011;39735;51.432;5.482;2023-04-12T00:23:34;19.50;;;2.42;;
53833;SDS011;39735;51.432;5.482;2023-04-12T00:26:02;8.77;;;1.70;;
53833;SDS011;39735;51.432;5.482;2023-04-12T00:28:28;17.63;;;2.80;;
53833;SDS011;39735;51.432;5.482;2023-04-12T00:30:53;17.15;;;2.00;;
53833;SDS011;39735;51.432;5.482;2023-04-12T00:33:19;13.57;;;1.83;;
53833;SDS011;39735;51.432;5.482;2023-04-12T00:35:44;7.15;;;1.30;;
53833;SDS011;39735;51.432;5.482;2023-04-12T00:38:09;5.13;;;1.23;;
53833;SDS011;39735;51.432;5.482;2023-04-12T00:40:35;14.30;;;2.88;;
53833;SDS011;39735;51.432;5.482;2023-04-12T00:43:05;6.85;;;1.48;;
53833;SDS011;39735;51.432;5.482;2023-04-12T00:45:31;4.50;;;1.15;;
53833;SDS011;39735;51.432;5.482;2023-04-12T00:47:56;6.03;;;1.35;;
53833;SDS011;39735;51.432;5.482;2023-04-12T00:50:21;9.85;;;2.53;;
53833;SDS011;39735;51.432;5.482;2023-04-12T00:52:48;9.07;;;2.58;;
53833;SDS011;39735;51.432;5.482;2023-04-12T00:55:15;7.30;;;2.13;;
53833;SDS011;39735;51.432;5.482;2023-04-12T00:57:42;13.55;;;2.35;;
53833;SDS011;39735;51.432;5.482;2023-04-12T01:00:08;9.48;;;1.67;;
53833;SDS011;39735;51.432;5.482;2023-04-12T01:02:40;9.32;;;1.27;;
53833;SDS011;39735;51.432;5.482;2023-04-12T01:05:11;18.30;;;2.20;;
53833;SDS011;39735;51.432;5.482;2023-04-12T01:10:25;13.65;;;2.40;;
53833;SDS011;39735;51.432;5.482;2023-04-12T01:13:54;14.10;;;1.95;;
53833;SDS011;39735;51.432;5.482;2023-04-12T01:16:45;6.30;;;1.35;;
53833;SDS011;39735;51.432;5.482;2023-04-12T01:19:05;15.10;;;2.00;;
53833;SDS011;39735;51.432;5.482;2023-04-12T01:21:50;13.25;;;1.60;;
53833;SDS011;39735;51.432;5.482;2023-04-12T01:24:42;8.50;;;1.48;;
53833;SDS011;39735;51.432;5.482;2023-04-12T01:27:27;12.45;;;1.60;;
53833;SDS011;39735;51.432;5.482;2023-04-12T01:29:57;9.73;;;1.83;;
53833;SDS011;39735;51.432;5.482;2023-04-12T01:32:24;15.32;;;1.98;;
53833;SDS011;39735;51.432;5.482;2023-04-12T01:34:50;8.88;;;2.05;;
53833;SDS011;39735;51.432;5.482;2023-04-12T01:37:15;10.07;;;1.88;;
53833;SDS011;39735;51.432;5.482;2023-04-12T01:39:43;22.98;;;1.65;;
53833;SDS011;39735;51.432;5.482;2023-04-12T01:42:09;14.57;;;4.20;;
53833;SDS011;39735;51.432;5.482;2023-04-12T01:44:35;11.77;;;2.35;;
53833;SDS011;39735;51.432;5.482;2023-04-12T01:47:00;7.72;;;1.80;;
53833;SDS011;39735;51.432;5.482;2023-04-12T01:49:27;5.55;;;1.58;;
53833;SDS011;39735;51.432;5.482;2023-04-12T01:52:11;11.68;;;1.55;;
53833;SDS011;39735;51.432;5.482;2023-04-12T01:54:37;7.57;;;1.00;;
53833;SDS011;39735;51.432;5.482;2023-04-12T01:57:05;7.38;;;1.52;;
53833;SDS011;39735;51.432;5.482;2023-04-12T01:59:39;12.75;;;2.13;;
53833;SDS011;39735;51.432;5.482;2023-04-12T02:02:10;14.55;;;1.98;;
53833;SDS011;39735;51.432;5.482;2023-04-12T02:04:36;11.70;;;2.53;;
53833;SDS011;39735;51.432;5.482;2023-04-12T02:07:02;12.48;;;2.05;;
53833;SDS011;39735;51.432;5.482;2023-04-12T02:09:28;14.85;;;3.65;;
53833;SDS011;39735;51.432;5.482;2023-04-12T02:11:53;10.38;;;1.92;;
53833;SDS011;39735;51.432;5.482;2023-04-12T02:14:20;7.13;;;1.45;;
53833;SDS011;39735;51.432;5.482;2023-04-12T02:16:45;15.23;;;3.13;;
53833;SDS011;39735;51.432;5.482;2023-04-12T02:19:11;8.25;;;1.92;;
53833;SDS011;39735;51.432;5.482;2023-04-12T02:21:44;10.32;;;1.73;;
53833;SDS011;39735;51.432;5.482;2023-04-12T02:24:09;3.30;;;1.20;;
53833;SDS011;39735;51.432;5.482;2023-04-12T02:26:36;10.20;;;1.55;;
53833;SDS011;39735;51.432;5.482;2023-04-12T02:29:02;18.58;;;1.55;;
53833;SDS011;39735;51.432;5.482;2023-04-12T02:31:33;19.35;;;3.00;;
53833;SDS011;39735;51.432;5.482;2023-04-12T02:33:59;11.73;;;1.65;;
53833;SDS011;39735;51.432;5.482;2023-04-12T02:36:25;6.38;;;2.05;;
53833;SDS011;39735;51.432;5.482;2023-04-12T02:38:50;6.45;;;1.52;;
53833;SDS011;39735;51.432;5.482;2023-04-12T02:41:19;7.13;;;2.15;;
53833;SDS011;39735;51.432;5.482;2023-04-12T02:43:45;9.10;;;1.85;;
53833;SDS011;39735;51.432;5.482;2023-04-12T02:46:15;11.88;;;1.45;;
53833;SDS011;39735;51.432;5.482;2023-04-12T02:48:43;10.50;;;1.65;;
53833;SDS011;39735;51.432;5.482;2023-04-12T02:51:09;7.35;;;1.27;;
53833;SDS011;39735;51.432;5.482;2023-04-12T02:53:34;7.07;;;1.00;;
53833;SDS011;39735;51.432;5.482;2023-04-12T02:56:00;2.17;;;0.93;;
53833;SDS011;39735;51.432;5.482;2023-04-12T02:58:25;7.53;;;1.48;;
53833;SDS011;39735;51.432;5.482;2023-04-12T03:00:51;4.80;;;1.08;;
53833;SDS011;39735;51.432;5.482;2023-04-12T03:03:17;3.60;;;1.15;;
53833;SDS011;39735;51.432;5.482;2023-04-12T03:05:42;3.65;;;1.10;;
53833;SDS011;39735;51.432;5.482;2023-04-12T03:08:11;9.77;;;1.63;;
53833;SDS011;39735;51.432;5.482;2023-04-12T03:10:37;14.15;;;1.52;;
53833;SDS011;39735;51.432;5.482;2023-04-12T03:13:02;5.60;;;1.60;;
53833;SDS011;39735;51.432;5.482;2023-04-12T03:15:29;6.25;;;1.13;;
53833;SDS011;39735;51.432;5.482;2023-04-12T03:17:54;9.43;;;1.80;;
53833;SDS011;39735;51.432;5.482;2023-04-12T03:20:20;7.97;;;1.00;;
53833;SDS011;39735;51.432;5.482;2023-04-12T03:22:48;1.38;;;1.00;;
53833;SDS011;39735;51.432;5.482;2023-04-12T03:25:14;3.30;;;0.93;;
53833;SDS011;39735;51.432;5.482;2023-04-12T03:27:41;11.57;;;2.65;;
53833;SDS011;39735;51.432;5.482;2023-04-12T03:30:08;3.42;;;1.35;;
53833;SDS011;39735;51.432;5.482;2023-04-12T03:32:35;0.98;;;0.68;;
53833;SDS011;39735;51.432;5.482;2023-04-12T03:35:01;9.00;;;1.13;;
53833;SDS011;39735;51.432;5.482;2023-04-12T03:37:27;12.88;;;1.83;;
53833;SDS011;39735;51.432;5.482;2023-04-12T03:39:52;5.97;;;1.23;;
53833;SDS011;39735;51.432;5.482;2023-04-12T03:42:18;5.75;;;1.13;;
53833;SDS011;39735;51.432;5.482;2023-04-12T03:44:43;8.73;;;1.30;;
53833;SDS011;39735;51.432;5.482;2023-04-12T03:47:09;4.65;;;1.20;;
53833;SDS011;39735;51.432;5.482;2023-04-12T03:49:35;10.23;;;1.02;;
53833;SDS011;39735;51.432;5.482;2023-04-12T03:52:02;2.28;;;0.77;;
53833;SDS011;39735;51.432;5.482;2023-04-12T03:54:29;3.05;;;1.23;;
53833;SDS011;39735;51.432;5.482;2023-04-12T03:56:54;5.38;;;1.02;;
53833;SDS011;39735;51.432;5.482;2023-04-12T03:59:20;2.50;;;1.23;;
53833;SDS011;39735;51.432;5.482;2023-04-12T04:01:46;5.95;;;1.27;;
53833;SDS011;39735;51.432;5.482;2023-04-12T04:04:11;1.67;;;1.33;;
53833;SDS011;39735;51.432;5.482;2023-04-12T04:06:37;2.58;;;0.63;;
53833;SDS011;39735;51.432;5.482;2023-04-12T04:09:03;7.63;;;3.08;;
53833;SDS011;39735;51.432;5.482;2023-04-12T04:11:30;8.13;;;1.67;;
53833;SDS011;39735;51.432;5.482;2023-04-12T04:13:56;6.35;;;0.85;;
53833;SDS011;39735;51.432;5.482;2023-04-12T04:16:21;4.28;;;1.20;;
53833;SDS011;39735;51.432;5.482;2023-04-12T04:18:47;8.10;;;0.90;;
53833;SDS011;39735;51.432;5.482;2023-04-12T04:21:12;3.35;;;0.75;;
53833;SDS011;39735;51.432;5.482;2023-04-12T04:23:38;1.75;;;0.82;;
53833;SDS011;39735;51.432;5.482;2023-04-12T04:26:07;2.55;;;0.70;;
53833;SDS011;39735;51.432;5.482;2023-04-12T04:28:39;0.88;;;0.68;;
53833;SDS011;39735;51.432;5.482;2023-04-12T04:31:14;3.10;;;0.68;;
53833;SDS011;39735;51.432;5.482;2023-04-12T04:33:41;1.65;;;0.70;;
53833;SDS011;39735;51.432;5.482;2023-04-12T04:36:06;10.07;;;1.17;;
53833;SDS011;39735;51.432;5.482;2023-04-12T04:38:33;3.47;;;1.10;;
53833;SDS011;39735;51.432;5.482;2023-04-12T04:40:59;6.53;;;0.70;;
53833;SDS011;39735;51.432;5.482;2023-04-12T04:43:28;14.23;;;1.80;;
53833;SDS011;39735;51.432;5.482;2023-04-12T04:45:55;1.90;;;0.75;;
53833;SDS011;39735;51.432;5.482;2023-04-12T04:48:21;5.30;;;1.08;;
53833;SDS011;39735;51.432;5.482;2023-04-12T04:50:47;9.73;;;1.20;;
53833;SDS011;39735;51.432;5.482;2023-04-12T04:53:12;2.35;;;0.77;;
53833;SDS011;39735;51.432;5.482;2023-04-12T04:55:37;2.53;;;0.95;;
53833;SDS011;39735;51.432;5.482;2023-04-12T04:58:06;0.65;;;0.65;;
53833;SDS011;39735;51.432;5.482;2023-04-12T05:00:31;10.52;;;0.90;;
53833;SDS011;39735;51.432;5.482;2023-04-12T05:02:59;2.35;;;0.88;;
53833;SDS011;39735;51.432;5.482;2023-04-12T05:05:25;3.85;;;1.40;;
53833;SDS011;39735;51.432;5.482;2023-04-12T05:07:50;2.15;;;0.98;;
53833;SDS011;39735;51.432;5.482;2023-04-12T05:10:16;4.90;;;0.73;;
53833;SDS011;39735;51.432;5.482;2023-04-12T05:12:41;12.18;;;2.38;;
53833;SDS011;39735;51.432;5.482;2023-04-12T05:15:07;1.55;;;0.52;;
53833;SDS011;39735;51.432;5.482;2023-04-12T05:17:32;2.65;;;0.90;;
53833;SDS011;39735;51.432;5.482;2023-04-12T05:19:58;2.83;;;0.77;;
53833;SDS011;39735;51.432;5.482;2023-04-12T05:22:25;1.20;;;0.47;;
53833;SDS011;39735;51.432;5.482;2023-04-12T05:24:53;2.80;;;1.00;;
53833;SDS011;39735;51.432;5.482;2023-04-12T05:27:19;3.20;;;0.75;;
53833;SDS011;39735;51.432;5.482;2023-04-12T05:29:45;1.35;;;0.80;;
53833;SDS011;39735;51.432;5.482;2023-04-12T05:32:11;1.85;;;0.88;;
53833;SDS011;39735;51.432;5.482;2023-04-12T05:34:36;7.43;;;1.17;;
53833;SDS011;39735;51.432;5.482;2023-04-12T05:37:02;2.42;;;1.05;;
53833;SDS011;39735;51.432;5.482;2023-04-12T05:39:28;1.02;;;0.73;;
53833;SDS011;39735;51.432;5.482;2023-04-12T05:41:54;0.70;;;0.70;;
53833;SDS011;39735;51.432;5.482;2023-04-12T05:44:19;1.65;;;0.93;;
53833;SDS011;39735;51.432;5.482;2023-04-12T05:46:45;10.40;;;2.03;;
53833;SDS011;39735;51.432;5.482;2023-04-12T05:49:10;1.65;;;1.13;;
53833;SDS011;39735;51.432;5.482;2023-04-12T05:51:36;2.58;;;1.30;;
53833;SDS011;39735;51.432;5.482;2023-04-12T05:54:01;1.80;;;0.98;;
53833;SDS011;39735;51.432;5.482;2023-04-12T05:56:30;2.38;;;0.68;;
53833;SDS011;39735;51.432;5.482;2023-04-12T05:58:56;6.75;;;1.38;;
53833;SDS011;39735;51.432;5.482;2023-04-12T06:01:21;2.50;;;1.08;;
53833;SDS011;39735;51.432;5.482;2023-04-12T06:03:48;2.20;;;0.82;;
53833;SDS011;39735;51.432;5.482;2023-04-12T06:06:15;2.92;;;1.13;;
53833;SDS011;39735;51.432;5.482;2023-04-12T06:08:40;6.72;;;1.73;;
53833;SDS011;39735;51.432;5.482;2023-04-12T06:11:06;3.15;;;1.02;;
53833;SDS011;39735;51.432;5.482;2023-04-12T06:13:33;6.43;;;0.68;;
53833;SDS011;39735;51.432;5.482;2023-04-12T06:15:58;6.18;;;1.30;;
53833;SDS011;39735;51.432;5.482;2023-04-12T06:18:24;6.68;;;0.93;;
53833;SDS011;39735;51.432;5.482;2023-04-12T06:20:50;0.80;;;0.70;;
53833;SDS011;39735;51.432;5.482;2023-04-12T06:23:15;6.05;;;2.88;;
53833;SDS011;39735;51.432;5.482;2023-04-12T06:25:43;1.20;;;0.93;;
53833;SDS011;39735;51.432;5.482;2023-04-12T06:28:08;9.27;;;1.17;;
53833;SDS011;39735;51.432;5.482;2023-04-12T06:30:34;1.60;;;0.85;;
53833;SDS011;39735;51.432;5.482;2023-04-12T06:32:59;4.70;;;0.77;;
53833;SDS011;39735;51.432;5.482;2023-04-12T06:35:25;5.20;;;0.88;;
53833;SDS011;39735;51.432;5.482;2023-04-12T06:37:50;20.83;;;3.75;;
53833;SDS011;39735;51.432;5.482;2023-04-12T06:40:16;11.32;;;0.93;;
53833;SDS011;39735;51.432;5.482;2023-04-12T06:42:41;4.50;;;4.10;;
53833;SDS011;39735;51.432;5.482;2023-04-12T06:45:07;1.60;;;1.50;;
53833;SDS011;39735;51.432;5.482;2023-04-12T06:47:32;4.00;;;0.80;;
53833;SDS011;39735;51.432;5.482;2023-04-12T06:49:58;3.17;;;1.27;;
53833;SDS011;39735;51.432;5.482;2023-04-12T06:52:23;4.40;;;2.60;;
53833;SDS011;39735;51.432;5.482;2023-04-12T06:54:50;6.03;;;1.40;;
53833;SDS011;39735;51.432;5.482;2023-04-12T06:57:16;3.20;;;1.13;;
53833;SDS011;39735;51.432;5.482;2023-04-12T06:59:41;1.08;;;0.50;;
53833;SDS011;39735;51.432;5.482;2023-04-12T07:02:06;2.30;;;0.95;;
53833;SDS011;39735;51.432;5.482;2023-04-12T07:04:32;1.20;;;1.10;;
53833;SDS011;39735;51.432;5.482;2023-04-12T07:06:57;0.22;;;0.22;;
53833;SDS011;39735;51.432;5.482;2023-04-12T07:09:23;4.90;;;0.68;;
53833;SDS011;39735;51.432;5.482;2023-04-12T07:11:48;3.45;;;0.90;;
53833;SDS011;39735;51.432;5.482;2023-04-12T07:14:13;19.48;;;0.60;;
53833;SDS011;39735;51.432;5.482;2023-04-12T07:16:41;0.75;;;0.73;;
53833;SDS011;39735;51.432;5.482;2023-04-12T07:19:07;2.03;;;1.23;;
53833;SDS011;39735;51.432;5.482;2023-04-12T07:21:32;1.27;;;1.20;;
53833;SDS011;39735;51.432;5.482;2023-04-12T07:23:57;6.80;;;1.70;;
53833;SDS011;39735;51.432;5.482;2023-04-12T07:26:23;1.40;;;1.00;;
53833;SDS011;39735;51.432;5.482;2023-04-12T07:28:49;1.92;;;1.60;;
53833;SDS011;39735;51.432;5.482;2023-04-12T07:31:15;8.30;;;1.52;;
53833;SDS011;39735;51.432;5.482;2023-04-12T07:33:41;1.50;;;1.50;;
53833;SDS011;39735;51.432;5.482;2023-04-12T07:36:06;8.82;;;1.33;;
53833;SDS011;39735;51.432;5.482;2023-04-12T07:38:32;2.72;;;1.25;;
53833;SDS011;39735;51.432;5.482;2023-04-12T07:40:57;6.38;;;1.60;;
53833;SDS011;39735;51.432;5.482;2023-04-12T07:43:23;10.93;;;2.55;;
53833;SDS011;39735;51.432;5.482;2023-04-12T07:45:48;7.90;;;4.35;;
53833;SDS011;39735;51.432;5.482;2023-04-12T07:48:14;4.35;;;1.50;;
53833;SDS011;39735;51.432;5.482;2023-04-12T07:50:39;5.10;;;1.75;;
53833;SDS011;39735;51.432;5.482;2023-04-12T07:55:47;11.85;;;1.50;;
53833;SDS011;39735;51.432;5.482;2023-04-12T07:58:14;10.93;;;1.60;;
53833;SDS011;39735;51.432;5.482;2023-04-12T08:00:41;6.93;;;2.33;;
53833;SDS011;39735;51.432;5.482;2023-04-12T08:03:06;6.35;;;1.95;;
53833;SDS011;39735;51.432;5.482;2023-04-12T08:05:32;5.80;;;2.15;;
53833;SDS011;39735;51.432;5.482;2023-04-12T08:07:58;6.97;;;2.30;;
53833;SDS011;39735;51.432;5.482;2023-04-12T08:10:23;9.27;;;1.73;;
53833;SDS011;39735;51.432;5.482;2023-04-12T08:12:49;3.53;;;1.73;;
53833;SDS011;39735;51.432;5.482;2023-04-12T08:15:14;14.35;;;2.58;;
53833;SDS011;39735;51.432;5.482;2023-04-12T08:17:40;3.50;;;1.77;;
53833;SDS011;39735;51.432;5.482;2023-04-12T08:20:07;9.05;;;3.53;;
53833;SDS011;39735;51.432;5.482;2023-04-12T08:22:33;5.38;;;1.98;;
53833;SDS011;39735;51.432;5.482;2023-04-12T08:24:59;13.70;;;3.25;;
53833;SDS011;39735;51.432;5.482;2023-04-12T08:27:25;2.78;;;1.85;;
53833;SDS011;39735;51.432;5.482;2023-04-12T08:29:51;19.30;;;4.78;;
53833;SDS011;39735;51.432;5.482;2023-04-12T08:32:16;8.75;;;3.50;;
53833;SDS011;39735;51.432;5.482;2023-04-12T08:34:41;9.38;;;2.53;;
53833;SDS011;39735;51.432;5.482;2023-04-12T08:37:07;7.72;;;3.80;;
53833;SDS011;39735;51.432;5.482;2023-04-12T08:39:32;5.32;;;2.80;;
53833;SDS011;39735;51.432;5.482;2023-04-12T08:41:59;5.80;;;3.05;;
53833;SDS011;39735;51.432;5.482;2023-04-12T08:44:34;8.07;;;4.15;;
53833;SDS011;39735;51.432;5.482;2023-04-12T08:47:03;9.93;;;3.58;;
53833;SDS011;39735;51.432;5.482;2023-04-12T08:49:33;11.07;;;3.38;;
53833;SDS011;39735;51.432;5.482;2023-04-12T08:51:59;20.90;;;4.50;;
53833;SDS011;39735;51.432;5.482;2023-04-12T08:54:27;6.78;;;5.22;;
53833;SDS011;39735;51.432;5.482;2023-04-12T08:56:54;17.00;;;5.60;;
53833;SDS011;39735;51.432;5.482;2023-04-12T08:59:22;14.30;;;6.25;;
53833;SDS011;39735;51.432;5.482;2023-04-12T09:01:48;7.65;;;4.85;;
53833;SDS011;39735;51.432;5.482;2023-04-12T09:04:14;27.13;;;4.95;;
53833;SDS011;39735;51.432;5.482;2023-04-12T09:06:39;13.88;;;5.60;;
53833;SDS011;39735;51.432;5.482;2023-04-12T09:09:06;9.18;;;5.60;;
53833;SDS011;39735;51.432;5.482;2023-04-12T09:11:31;19.70;;;6.30;;
53833;SDS011;39735;51.432;5.482;2023-04-12T09:13:57;33.97;;;7.57;;
53833;SDS011;39735;51.432;5.482;2023-04-12T09:16:39;18.02;;;6.45;;
53833;SDS011;39735;51.432;5.482;2023-04-12T09:19:05;20.90;;;7.57;;
53833;SDS011;39735;51.432;5.482;2023-04-12T09:21:34;23.75;;;7.60;;
53833;SDS011;39735;51.432;5.482;2023-04-12T09:24:01;21.30;;;7.22;;
53833;SDS011;39735;51.432;5.482;2023-04-12T09:29:00;24.50;;;6.32;;
53833;SDS011;39735;51.432;5.482;2023-04-12T09:31:26;46.78;;;6.90;;
53833;SDS011;39735;51.432;5.482;2023-04-12T09:34:16;36.15;;;7.57;;
53833;SDS011;39735;51.432;5.482;2023-04-12T09:36:40;25.67;;;9.13;;
53833;SDS011;39735;51.432;5.482;2023-04-12T09:39:07;35.78;;;9.50;;
53833;SDS011;39735;51.432;5.482;2023-04-12T09:41:32;31.05;;;8.60;;
53833;SDS011;39735;51.432;5.482;2023-04-12T09:43:58;24.90;;;9.07;;
53833;SDS011;39735;51.432;5.482;2023-04-12T09:46:25;55.13;;;12.18;;
53833;SDS011;39735;51.432;5.482;2023-04-12T09:48:51;55.33;;;7.53;;
53833;SDS011;39735;51.432;5.482;2023-04-12T09:53:52;23.17;;;7.35;;
53833;SDS011;39735;51.432;5.482;2023-04-12T09:56:18;52.83;;;8.25;;
53833;SDS011;39735;51.432;5.482;2023-04-12T09:58:46;21.17;;;8.43;;
53833;SDS011;39735;51.432;5.482;2023-04-12T10:01:16;38.70;;;8.35;;
53833;SDS011;39735;51.432;5.482;2023-04-12T10:03:42;50.55;;;9.15;;
53833;SDS011;39735;51.432;5.482;2023-04-12T10:06:07;33.50;;;7.20;;
53833;SDS011;39735;51.432;5.482;2023-04-12T10:08:35;45.08;;;8.52;;
53833;SDS011;39735;51.432;5.482;2023-04-12T10:11:02;40.75;;;6.25;;
53833;SDS011;39735;51.432;5.482;2023-04-12T10:13:30;41.92;;;7.53;;
53833;SDS011;39735;51.432;5.482;2023-04-12T10:15:56;36.58;;;7.50;;
53833;SDS011;39735;51.432;5.482;2023-04-12T10:18:23;36.10;;;6.50;;
53833;SDS011;39735;51.432;5.482;2023-04-12T10:20:51;27.38;;;6.85;;
53833;SDS011;39735;51.432;5.482;2023-04-12T10:23:16;27.25;;;7.03;;
53833;SDS011;39735;51.432;5.482;2023-04-12T10:25:43;39.28;;;6.63;;
53833;SDS011;39735;51.432;5.482;2023-04-12T10:28:13;43.60;;;5.57;;
53833;SDS011;39735;51.432;5.482;2023-04-12T10:30:48;33.90;;;7.43;;
53833;SDS011;39735;51.432;5.482;2023-04-12T10:33:16;39.22;;;8.05;;
53833;SDS011;39735;51.432;5.482;2023-04-12T10:36:01;42.50;;;6.07;;
53833;SDS011;39735;51.432;5.482;2023-04-12T10:38:44;27.83;;;6.55;;
53833;SDS011;39735;51.432;5.482;2023-04-12T10:41:12;25.08;;;5.43;;
53833;SDS011;39735;51.432;5.482;2023-04-12T10:43:38;40.20;;;7.28;;
53833;SDS011;39735;51.432;5.482;2023-04-12T10:46:05;41.97;;;8.40;;
53833;SDS011;39735;51.432;5.482;2023-04-12T10:48:37;21.17;;;5.32;;
53833;SDS011;39735;51.432;5.482;2023-04-12T10:51:23;34.03;;;5.40;;
53833;SDS011;39735;51.432;5.482;2023-04-12T10:54:35;25.92;;;5.15;;
53833;SDS011;39735;51.432;5.482;2023-04-12T10:56:39;30.48;;;5.65;;
53833;SDS011;39735;51.432;5.482;2023-04-12T10:59:06;39.28;;;5.95;;
53833;SDS011;39735;51.432;5.482;2023-04-12T11:01:32;30.25;;;6.40;;
53833;SDS011;39735;51.432;5.482;2023-04-12T11:09:38;31.75;;;9.82;;
53833;SDS011;39735;51.432;5.482;2023-04-12T11:15:03;40.33;;;7.85;;
53833;SDS011;39735;51.432;5.482;2023-04-12T11:17:25;36.55;;;9.82;;
53833;SDS011;39735;51.432;5.482;2023-04-12T11:19:52;25.63;;;10.02;;
53833;SDS011;39735;51.432;5.482;2023-04-12T11:22:19;26.70;;;6.07;;
53833;SDS011;39735;51.432;5.482;2023-04-12T11:24:52;20.73;;;6.28;;
53833;SDS011;39735;51.432;5.482;2023-04-12T11:27:22;29.20;;;5.20;;
53833;SDS011;39735;51.432;5.482;2023-04-12T11:29:49;25.65;;;5.20;;
53833;SDS011;39735;51.432;5.482;2023-04-12T11:32:16;44.65;;;8.52;;
53833;SDS011;39735;51.432;5.482;2023-04-12T11:34:43;25.23;;;5.70;;
53833;SDS011;39735;51.432;5.482;2023-04-12T11:37:09;26.52;;;5.43;;
53833;SDS011;39735;51.432;5.482;2023-04-12T11:39:36;14.50;;;5.78;;
53833;SDS011;39735;51.432;5.482;2023-04-12T11:42:04;39.50;;;5.60;;
53833;SDS011;39735;51.432;5.482;2023-04-12T11:44:32;27.92;;;5.90;;
53833;SDS011;39735;51.432;5.482;2023-04-12T11:46:57;31.80;;;7.25;;
53833;SDS011;39735;51.432;5.482;2023-04-12T11:49:23;24.17;;;4.32;;
53833;SDS011;39735;51.432;5.482;2023-04-12T11:51:48;22.42;;;4.68;;
53833;SDS011;39735;51.432;5.482;2023-04-12T11:54:14;28.05;;;4.70;;
53833;SDS011;39735;51.432;5.482;2023-04-12T11:56:40;20.30;;;5.32;;
53833;SDS011;39735;51.432;5.482;2023-04-12T11:59:06;14.50;;;3.60;;
53833;SDS011;39735;51.432;5.482;2023-04-12T12:01:35;36.22;;;8.07;;
53833;SDS011;39735;51.432;5.482;2023-04-12T12:04:01;30.88;;;5.68;;
53833;SDS011;39735;51.432;5.482;2023-04-12T12:06:28;23.33;;;6.07;;
53833;SDS011;39735;51.432;5.482;2023-04-12T12:08:53;52.13;;;4.80;;
53833;SDS011;39735;51.432;5.482;2023-04-12T12:11:20;24.60;;;5.50;;
53833;SDS011;39735;51.432;5.482;2023-04-12T12:13:46;23.08;;;5.60;;
53833;SDS011;39735;51.432;5.482;2023-04-12T12:16:13;33.00;;;4.78;;
53833;SDS011;39735;51.432;5.482;2023-04-12T12:18:39;36.53;;;5.68;;
53833;SDS011;39735;51.432;5.482;2023-04-12T12:21:07;23.90;;;5.40;;
53833;SDS011;39735;51.432;5.482;2023-04-12T12:23:33;41.63;;;7.85;;
53833;SDS011;39735;51.432;5.482;2023-04-12T12:25:59;15.85;;;5.18;;
53833;SDS011;39735;51.432;5.482;2023-04-12T12:28:27;27.45;;;4.85;;
53833;SDS011;39735;51.432;5.482;2023-04-12T12:30:53;22.85;;;5.35;;
53833;SDS011;39735;51.432;5.482;2023-04-12T12:33:19;11.75;;;3.28;;
53833;SDS011;39735;51.432;5.482;2023-04-12T12:35:45;32.47;;;5.93;;
53833;SDS011;39735;51.432;5.482;2023-04-12T12:38:10;15.80;;;3.50;;
53833;SDS011;39735;51.432;5.482;2023-04-12T12:40:36;24.55;;;5.22;;
53833;SDS011;39735;51.432;5.482;2023-04-12T12:43:03;20.67;;;5.00;;
53833;SDS011;39735;51.432;5.482;2023-04-12T12:45:31;18.38;;;3.70;;
53833;SDS011;39735;51.432;5.482;2023-04-12T12:47:58;17.17;;;6.35;;
53833;SDS011;39735;51.432;5.482;2023-04-12T12:50:27;16.17;;;3.65;;
53833;SDS011;39735;51.432;5.482;2023-04-12T12:52:54;22.33;;;4.07;;
53833;SDS011;39735;51.432;5.482;2023-04-12T12:55:20;19.15;;;5.05;;
53833;SDS011;39735;51.432;5.482;2023-04-12T12:57:47;16.95;;;3.70;;
53833;SDS011;39735;51.432;5.482;2023-04-12T13:00:13;11.05;;;3.63;;
53833;SDS011;39735;51.432;5.482;2023-04-12T13:02:40;19.33;;;2.95;;
53833;SDS011;39735;51.432;5.482;2023-04-12T13:05:06;15.40;;;2.78;;
53833;SDS011;39735;51.432;5.482;2023-04-12T13:07:32;15.88;;;4.57;;
53833;SDS011;39735;51.432;5.482;2023-04-12T13:09:58;16.85;;;4.32;;
53833;SDS011;39735;51.432;5.482;2023-04-12T13:12:24;16.25;;;3.25;;
53833;SDS011;39735;51.432;5.482;2023-04-12T13:14:50;30.35;;;4.53;;
53833;SDS011;39735;51.432;5.482;2023-04-12T13:17:16;28.48;;;4.07;;
53833;SDS011;39735;51.432;5.482;2023-04-12T13:19:41;21.25;;;4.25;;
53833;SDS011;39735;51.432;5.482;2023-04-12T13:22:07;12.30;;;3.50;;
53833;SDS011;39735;51.432;5.482;2023-04-12T13:24:36;16.48;;;4.28;;
53833;SDS011;39735;51.432;5.482;2023-04-12T13:27:01;14.45;;;4.53;;
53833;SDS011;39735;51.432;5.482;2023-04-12T13:29:27;10.73;;;3.17;;
53833;SDS011;39735;51.432;5.482;2023-04-12T13:31:52;9.23;;;1.65;;
53833;SDS011;39735;51.432;5.482;2023-04-12T13:34:18;4.32;;;1.00;;
53833;SDS011;39735;51.432;5.482;2023-04-12T13:36:44;4.63;;;1.10;;
53833;SDS011;39735;51.432;5.482;2023-04-12T13:39:09;9.40;;;1.75;;
53833;SDS011;39735;51.432;5.482;2023-04-12T13:41:35;7.13;;;1.27;;
53833;SDS011;39735;51.432;5.482;2023-04-12T13:44:00;3.78;;;1.08;;
53833;SDS011;39735;51.432;5.482;2023-04-12T13:46:26;12.80;;;1.48;;
53833;SDS011;39735;51.432;5.482;2023-04-12T13:48:51;14.60;;;1.50;;
53833;SDS011;39735;51.432;5.482;2023-04-12T13:51:17;8.25;;;1.40;;
53833;SDS011;39735;51.432;5.482;2023-04-12T13:53:45;5.05;;;1.40;;
53833;SDS011;39735;51.432;5.482;2023-04-12T13:56:11;6.43;;;3.03;;
53833;SDS011;39735;51.432;5.482;2023-04-12T13:58:37;9.68;;;1.50;;
53833;SDS011;39735;51.432;5.482;2023-04-12T14:01:04;8.85;;;2.25;;
53833;SDS011;39735;51.432;5.482;2023-04-12T14:03:30;8.57;;;2.53;;
53833;SDS011;39735;51.432;5.482;2023-04-12T14:05:55;6.28;;;1.63;;
53833;SDS011;39735;51.432;5.482;2023-04-12T14:08:21;11.05;;;2.55;;
53833;SDS011;39735;51.432;5.482;2023-04-12T14:10:46;8.98;;;1.88;;
53833;SDS011;39735;51.432;5.482;2023-04-12T14:13:12;5.38;;;1.35;;
53833;SDS011;39735;51.432;5.482;2023-04-12T14:15:37;8.52;;;1.65;;
53833;SDS011;39735;51.432;5.482;2023-04-12T14:18:03;5.22;;;1.60;;
53833;SDS011;39735;51.432;5.482;2023-04-12T14:20:28;8.32;;;2.35;;
53833;SDS011;39735;51.432;5.482;2023-04-12T14:22:53;8.55;;;1.17;;
53833;SDS011;39735;51.432;5.482;2023-04-12T14:25:19;2.65;;;1.42;;
53833;SDS011;39735;51.432;5.482;2023-04-12T14:27:45;4.70;;;1.45;;
53833;SDS011;39735;51.432;5.482;2023-04-12T14:30:10;10.55;;;1.50;;
53833;SDS011;39735;51.432;5.482;2023-04-12T14:32:36;3.03;;;1.50;;
53833;SDS011;39735;51.432;5.482;2023-04-12T14:35:01;6.47;;;2.65;;
53833;SDS011;39735;51.432;5.482;2023-04-12T14:37:28;9.80;;;2.63;;
53833;SDS011;39735;51.432;5.482;2023-04-12T14:39:55;9.27;;;4.18;;
53833;SDS011;39735;51.432;5.482;2023-04-12T14:42:21;4.90;;;2.42;;
53833;SDS011;39735;51.432;5.482;2023-04-12T14:44:46;5.88;;;2.05;;
53833;SDS011;39735;51.432;5.482;2023-04-12T14:47:11;7.28;;;3.42;;
53833;SDS011;39735;51.432;5.482;2023-04-12T14:49:37;15.68;;;2.78;;
53833;SDS011;39735;51.432;5.482;2023-04-12T14:52:02;6.72;;;2.55;;
53833;SDS011;39735;51.432;5.482;2023-04-12T14:54:28;12.95;;;4.30;;
53833;SDS011;39735;51.432;5.482;2023-04-12T14:56:54;12.00;;;1.38;;
53833;SDS011;39735;51.432;5.482;2023-04-12T14:59:20;4.30;;;1.33;;